sensor_id;sensor_type;location;lat;lon;timestamp;temperature;humidity
14182;DHT22;7171;50.936;6.764;2023-12-20T00:02:15;8.70;99.90
14182;DHT22;7171;50.936;6.764;2023-12-20T00:04:42;8.70;99.90
14182;DHT22;7171;50.936;6.764;2023-12-20T00:07:09;8.70;99.90
14182;DHT22;7171;50.936;6.764;2023-12-20T00:09:35;8.80;99.90
14182;DHT22;7171;50.936;6.764;2023-12-20T00:12:02;8.80;99.90
14182;DHT22;7171;50.936;6.764;2023-12-20T00:14:29;8.80;99.90
14182;DHT22;7171;50.936;6.764;2023-12-20T00:16:56;8.80;99.90
14182;DHT22;7171;50.936;6.764;2023-12-20T00:19:24;8.80;99.90
14182;DHT22;7171;50.936;6.764;2023-12-20T00:21:50;8.80;99.90
14182;DHT22;7171;50.936;6.764;2023-12-20T00:24:17;8.80;99.90
14182;DHT22;7171;50.936;6.764;2023-12-20T00:26:44;8.80;99.90
14182;DHT22;7171;50.936;6.764;2023-12-20T00:29:11;8.80;99.90
14182;DHT22;7171;50.936;6.764;2023-12-20T00:31:37;8.80;99.90
14182;DHT22;7171;50.936;6.764;2023-12-20T00:34:04;8.80;99.90
14182;DHT22;7171;50.936;6.764;2023-12-20T00:36:32;8.70;99.90
14182;DHT22;7171;50.936;6.764;2023-12-20T00:38:59;8.80;99.90
14182;DHT22;7171;50.936;6.764;2023-12-20T00:41:26;8.80;99.90
14182;DHT22;7171;50.936;6.764;2023-12-20T00:43:52;8.80;99.90
14182;DHT22;7171;50.936;6.764;2023-12-20T00:46:19;8.70;99.90
14182;DHT22;7171;50.936;6.764;2023-12-20T00:48:46;8.80;99.90
14182;DHT22;7171;50.936;6.764;2023-12-20T00:51:13;8.80;99.90
14182;DHT22;7171;50.936;6.764;2023-12-20T00:53:41;8.80;99.90
14182;DHT22;7171;50.936;6.764;2023-12-20T00:56:08;8.80;99.90
14182;DHT22;7171;50.936;6.764;2023-12-20T00:58:35;8.90;99.90
14182;DHT22;7171;50.936;6.764;2023-12-20T01:01:02;8.80;99.90
14182;DHT22;7171;50.936;6.764;2023-12-20T01:03:29;8.80;99.90
14182;DHT22;7171;50.936;6.764;2023-12-20T01:05:55;8.80;99.90
14182;DHT22;7171;50.936;6.764;2023-12-20T01:08:23;8.80;99.90
14182;DHT22;7171;50.936;6.764;2023-12-20T01:10:51;8.80;99.90
14182;DHT22;7171;50.936;6.764;2023-12-20T01:13:18;8.70;99.90
14182;DHT22;7171;50.936;6.764;2023-12-20T01:15:44;8.70;99.90
14182;DHT22;7171;50.936;6.764;2023-12-20T01:18:13;8.70;99.90
14182;DHT22;7171;50.936;6.764;2023-12-20T01:20:39;8.70;99.90
14182;DHT22;7171;50.936;6.764;2023-12-20T01:23:06;8.70;99.90
14182;DHT22;7171;50.936;6.764;2023-12-20T01:25:33;8.60;99.90
14182;DHT22;7171;50.936;6.764;2023-12-20T01:28:01;8.60;99.90
14182;DHT22;7171;50.936;6.764;2023-12-20T01:30:28;8.70;99.90
14182;DHT22;7171;50.936;6.764;2023-12-20T01:32:55;8.70;99.90
14182;DHT22;7171;50.936;6.764;2023-12-20T01:35:22;8.60;99.90
14182;DHT22;7171;50.936;6.764;2023-12-20T01:37:49;8.60;99.90
14182;DHT22;7171;50.936;6.764;2023-12-20T01:40:15;8.60;99.90
14182;DHT22;7171;50.936;6.764;2023-12-20T01:42:42;8.50;99.90
14182;DHT22;7171;50.936;6.764;2023-12-20T01:45:11;8.50;99.90
14182;DHT22;7171;50.936;6.764;2023-12-20T01:47:38;8.40;99.90
14182;DHT22;7171;50.936;6.764;2023-12-20T01:50:06;8.30;99.90
14182;DHT22;7171;50.936;6.764;2023-12-20T01:52:34;8.20;99.90
14182;DHT22;7171;50.936;6.764;2023-12-20T01:55:01;8.10;99.90
14182;DHT22;7171;50.936;6.764;2023-12-20T01:57:30;8.00;99.90
14182;DHT22;7171;50.936;6.764;2023-12-20T01:59:57;8.00;99.90
14182;DHT22;7171;50.936;6.764;2023-12-20T02:02:26;7.90;99.90
14182;DHT22;7171;50.936;6.764;2023-12-20T02:04:53;7.90;99.90
14182;DHT22;7171;50.936;6.764;2023-12-20T02:07:21;7.80;99.90
14182;DHT22;7171;50.936;6.764;2023-12-20T02:09:48;7.80;99.90
14182;DHT22;7171;50.936;6.764;2023-12-20T02:12:15;7.80;99.90
14182;DHT22;7171;50.936;6.764;2023-12-20T02:14:42;7.70;99.90
14182;DHT22;7171;50.936;6.764;2023-12-20T02:17:09;7.70;99.90
14182;DHT22;7171;50.936;6.764;2023-12-20T02:19:37;7.70;99.90
14182;DHT22;7171;50.936;6.764;2023-12-20T02:22:09;7.60;99.90
14182;DHT22;7171;50.936;6.764;2023-12-20T02:24:36;7.60;99.90
14182;DHT22;7171;50.936;6.764;2023-12-20T02:27:05;7.60;99.90
14182;DHT22;7171;50.936;6.764;2023-12-20T02:29:33;7.50;99.90
14182;DHT22;7171;50.936;6.764;2023-12-20T02:31:59;7.50;99.90
14182;DHT22;7171;50.936;6.764;2023-12-20T02:34:26;7.50;99.90
14182;DHT22;7171;50.936;6.764;2023-12-20T02:36:53;7.50;99.90
14182;DHT22;7171;50.936;6.764;2023-12-20T02:39:22;7.50;99.90
14182;DHT22;7171;50.936;6.764;2023-12-20T02:41:49;7.40;99.90
14182;DHT22;7171;50.936;6.764;2023-12-20T02:44:16;7.40;99.90
14182;DHT22;7171;50.936;6.764;2023-12-20T02:46:42;7.40;99.90
14182;DHT22;7171;50.936;6.764;2023-12-20T02:49:09;7.40;99.90
14182;DHT22;7171;50.936;6.764;2023-12-20T02:51:36;7.40;99.90
14182;DHT22;7171;50.936;6.764;2023-12-20T02:54:04;7.40;99.90
14182;DHT22;7171;50.936;6.764;2023-12-20T02:56:32;7.40;99.90
14182;DHT22;7171;50.936;6.764;2023-12-20T02:58:58;7.40;99.90
14182;DHT22;7171;50.936;6.764;2023-12-20T03:01:26;7.40;99.90
14182;DHT22;7171;50.936;6.764;2023-12-20T03:03:52;7.40;99.90
14182;DHT22;7171;50.936;6.764;2023-12-20T03:06:19;7.40;99.90
14182;DHT22;7171;50.936;6.764;2023-12-20T03:08:46;7.50;99.90
14182;DHT22;7171;50.936;6.764;2023-12-20T03:11:13;7.50;99.90
14182;DHT22;7171;50.936;6.764;2023-12-20T03:13:41;7.50;99.90
14182;DHT22;7171;50.936;6.764;2023-12-20T03:16:11;7.50;99.90
14182;DHT22;7171;50.936;6.764;2023-12-20T03:18:38;7.50;99.90
14182;DHT22;7171;50.936;6.764;2023-12-20T03:21:05;7.50;99.90
14182;DHT22;7171;50.936;6.764;2023-12-20T03:23:32;7.50;99.90
14182;DHT22;7171;50.936;6.764;2023-12-20T03:25:59;7.50;99.90
14182;DHT22;7171;50.936;6.764;2023-12-20T03:28:27;7.60;99.90
14182;DHT22;7171;50.936;6.764;2023-12-20T03:30:55;7.60;99.90
14182;DHT22;7171;50.936;6.764;2023-12-20T03:33:22;7.60;99.90
14182;DHT22;7171;50.936;6.764;2023-12-20T03:35:49;7.60;99.90
14182;DHT22;7171;50.936;6.764;2023-12-20T03:38:16;7.60;99.90
14182;DHT22;7171;50.936;6.764;2023-12-20T03:40:42;7.60;99.90
14182;DHT22;7171;50.936;6.764;2023-12-20T03:43:09;7.60;99.90
14182;DHT22;7171;50.936;6.764;2023-12-20T03:45:36;7.60;99.90
14182;DHT22;7171;50.936;6.764;2023-12-20T03:48:05;7.70;99.90
14182;DHT22;7171;50.936;6.764;2023-12-20T03:50:33;7.70;99.90
14182;DHT22;7171;50.936;6.764;2023-12-20T03:53:00;7.70;99.90
14182;DHT22;7171;50.936;6.764;2023-12-20T03:55:27;7.70;99.90
14182;DHT22;7171;50.936;6.764;2023-12-20T03:57:53;7.70;99.90
14182;DHT22;7171;50.936;6.764;2023-12-20T04:00:20;7.60;99.90
14182;DHT22;7171;50.936;6.764;2023-12-20T04:02:47;7.70;99.90
14182;DHT22;7171;50.936;6.764;2023-12-20T04:05:15;7.70;99.90
14182;DHT22;7171;50.936;6.764;2023-12-20T04:07:42;7.70;99.90
14182;DHT22;7171;50.936;6.764;2023-12-20T04:10:09;7.70;99.90
14182;DHT22;7171;50.936;6.764;2023-12-20T04:12:36;7.70;99.90
14182;DHT22;7171;50.936;6.764;2023-12-20T04:15:03;7.70;99.90
14182;DHT22;7171;50.936;6.764;2023-12-20T04:17:34;7.70;99.90
14182;DHT22;7171;50.936;6.764;2023-12-20T04:20:01;7.70;99.90
14182;DHT22;7171;50.936;6.764;2023-12-20T04:22:29;7.70;99.90
14182;DHT22;7171;50.936;6.764;2023-12-20T04:24:56;7.60;99.90
14182;DHT22;7171;50.936;6.764;2023-12-20T04:27:22;7.60;99.90
14182;DHT22;7171;50.936;6.764;2023-12-20T04:29:49;7.60;99.90
14182;DHT22;7171;50.936;6.764;2023-12-20T04:32:16;7.60;99.90
14182;DHT22;7171;50.936;6.764;2023-12-20T04:34:43;7.50;99.90
14182;DHT22;7171;50.936;6.764;2023-12-20T04:37:09;7.50;99.90
14182;DHT22;7171;50.936;6.764;2023-12-20T04:39:37;7.50;99.90
14182;DHT22;7171;50.936;6.764;2023-12-20T04:42:04;7.50;99.90
14182;DHT22;7171;50.936;6.764;2023-12-20T04:44:31;7.50;99.90
14182;DHT22;7171;50.936;6.764;2023-12-20T04:46:58;7.50;99.90
14182;DHT22;7171;50.936;6.764;2023-12-20T04:49:25;7.50;99.90
14182;DHT22;7171;50.936;6.764;2023-12-20T04:51:52;7.50;99.90
14182;DHT22;7171;50.936;6.764;2023-12-20T04:54:18;7.40;99.90
14182;DHT22;7171;50.936;6.764;2023-12-20T04:56:46;7.40;99.90
14182;DHT22;7171;50.936;6.764;2023-12-20T04:59:13;7.40;99.90
14182;DHT22;7171;50.936;6.764;2023-12-20T05:01:40;7.40;99.90
14182;DHT22;7171;50.936;6.764;2023-12-20T05:04:07;7.40;99.90
14182;DHT22;7171;50.936;6.764;2023-12-20T05:06:33;7.30;99.90
14182;DHT22;7171;50.936;6.764;2023-12-20T05:09:00;7.30;99.90
14182;DHT22;7171;50.936;6.764;2023-12-20T05:11:27;7.30;99.90
14182;DHT22;7171;50.936;6.764;2023-12-20T05:13:56;7.30;99.90
14182;DHT22;7171;50.936;6.764;2023-12-20T05:16:22;7.30;99.90
14182;DHT22;7171;50.936;6.764;2023-12-20T05:18:49;7.30;99.90
14182;DHT22;7171;50.936;6.764;2023-12-20T05:21:17;7.30;99.90
14182;DHT22;7171;50.936;6.764;2023-12-20T05:23:44;7.20;99.90
14182;DHT22;7171;50.936;6.764;2023-12-20T05:26:11;7.30;99.90
14182;DHT22;7171;50.936;6.764;2023-12-20T05:28:38;7.30;99.90
14182;DHT22;7171;50.936;6.764;2023-12-20T05:31:06;7.20;99.90
14182;DHT22;7171;50.936;6.764;2023-12-20T05:33:33;7.20;99.90
14182;DHT22;7171;50.936;6.764;2023-12-20T05:36:00;7.20;99.90
14182;DHT22;7171;50.936;6.764;2023-12-20T05:38:27;7.20;99.90
14182;DHT22;7171;50.936;6.764;2023-12-20T05:40:53;7.20;99.90
14182;DHT22;7171;50.936;6.764;2023-12-20T05:43:20;7.20;99.90
14182;DHT22;7171;50.936;6.764;2023-12-20T05:45:47;7.20;99.90
14182;DHT22;7171;50.936;6.764;2023-12-20T05:48:15;7.20;99.90
14182;DHT22;7171;50.936;6.764;2023-12-20T05:50:41;7.20;99.90
14182;DHT22;7171;50.936;6.764;2023-12-20T05:53:08;7.20;99.90
14182;DHT22;7171;50.936;6.764;2023-12-20T05:55:35;7.20;99.90
14182;DHT22;7171;50.936;6.764;2023-12-20T05:58:02;7.20;99.90
14182;DHT22;7171;50.936;6.764;2023-12-20T06:00:28;7.20;99.90
14182;DHT22;7171;50.936;6.764;2023-12-20T06:02:56;7.20;99.90
14182;DHT22;7171;50.936;6.764;2023-12-20T06:05:24;7.20;99.90
14182;DHT22;7171;50.936;6.764;2023-12-20T06:07:51;7.20;99.90
14182;DHT22;7171;50.936;6.764;2023-12-20T06:10:18;7.20;99.90
14182;DHT22;7171;50.936;6.764;2023-12-20T06:12:44;7.20;99.90
14182;DHT22;7171;50.936;6.764;2023-12-20T06:15:12;7.20;99.90
14182;DHT22;7171;50.936;6.764;2023-12-20T06:17:39;7.20;99.90
14182;DHT22;7171;50.936;6.764;2023-12-20T06:20:08;7.30;99.90
14182;DHT22;7171;50.936;6.764;2023-12-20T06:22:36;7.30;99.90
14182;DHT22;7171;50.936;6.764;2023-12-20T06:25:03;7.40;99.90
14182;DHT22;7171;50.936;6.764;2023-12-20T06:27:30;7.30;99.90
14182;DHT22;7171;50.936;6.764;2023-12-20T06:29:58;7.30;99.90
14182;DHT22;7171;50.936;6.764;2023-12-20T06:32:25;7.40;99.90
14182;DHT22;7171;50.936;6.764;2023-12-20T06:34:54;7.30;99.90
14182;DHT22;7171;50.936;6.764;2023-12-20T06:37:21;7.40;99.90
14182;DHT22;7171;50.936;6.764;2023-12-20T06:39:49;7.40;99.90
14182;DHT22;7171;50.936;6.764;2023-12-20T06:42:15;7.40;99.90
14182;DHT22;7171;50.936;6.764;2023-12-20T06:44:42;7.40;99.90
14182;DHT22;7171;50.936;6.764;2023-12-20T06:47:09;7.40;99.90
14182;DHT22;7171;50.936;6.764;2023-12-20T06:49:36;7.40;99.90
14182;DHT22;7171;50.936;6.764;2023-12-20T06:52:03;7.40;99.90
14182;DHT22;7171;50.936;6.764;2023-12-20T06:54:30;7.40;99.90
14182;DHT22;7171;50.936;6.764;2023-12-20T06:56:58;7.40;99.90
14182;DHT22;7171;50.936;6.764;2023-12-20T06:59:24;7.40;99.90
14182;DHT22;7171;50.936;6.764;2023-12-20T07:01:51;7.40;99.90
14182;DHT22;7171;50.936;6.764;2023-12-20T07:04:18;7.40;99.90
14182;DHT22;7171;50.936;6.764;2023-12-20T07:06:45;7.40;99.90
14182;DHT22;7171;50.936;6.764;2023-12-20T07:09:13;7.40;99.90
14182;DHT22;7171;50.936;6.764;2023-12-20T07:11:40;7.40;99.90
14182;DHT22;7171;50.936;6.764;2023-12-20T07:14:08;7.40;99.90
14182;DHT22;7171;50.936;6.764;2023-12-20T07:16:35;7.40;99.90
14182;DHT22;7171;50.936;6.764;2023-12-20T07:19:02;7.40;99.90
14182;DHT22;7171;50.936;6.764;2023-12-20T07:21:29;7.40;99.90
14182;DHT22;7171;50.936;6.764;2023-12-20T07:23:56;7.40;99.90
14182;DHT22;7171;50.936;6.764;2023-12-20T07:26:22;7.40;99.90
14182;DHT22;7171;50.936;6.764;2023-12-20T07:28:49;7.40;99.90
14182;DHT22;7171;50.936;6.764;2023-12-20T07:31:17;7.40;99.90
14182;DHT22;7171;50.936;6.764;2023-12-20T07:33:44;7.40;99.90
14182;DHT22;7171;50.936;6.764;2023-12-20T07:36:12;7.40;99.90
14182;DHT22;7171;50.936;6.764;2023-12-20T07:38:38;7.40;99.90
14182;DHT22;7171;50.936;6.764;2023-12-20T07:41:09;7.40;99.90
14182;DHT22;7171;50.936;6.764;2023-12-20T07:43:36;7.40;99.90
14182;DHT22;7171;50.936;6.764;2023-12-20T07:46:06;7.40;99.90
14182;DHT22;7171;50.936;6.764;2023-12-20T07:48:35;7.40;99.90
14182;DHT22;7171;50.936;6.764;2023-12-20T07:51:02;7.40;99.90
14182;DHT22;7171;50.936;6.764;2023-12-20T07:53:29;7.40;99.90
14182;DHT22;7171;50.936;6.764;2023-12-20T07:55:56;7.40;99.90
14182;DHT22;7171;50.936;6.764;2023-12-20T07:58:22;7.40;99.90
14182;DHT22;7171;50.936;6.764;2023-12-20T08:00:49;7.40;99.90
14182;DHT22;7171;50.936;6.764;2023-12-20T08:03:16;7.40;99.90
14182;DHT22;7171;50.936;6.764;2023-12-20T08:05:44;7.40;99.90
14182;DHT22;7171;50.936;6.764;2023-12-20T08:08:10;7.40;99.90
14182;DHT22;7171;50.936;6.764;2023-12-20T08:10:37;7.40;99.90
14182;DHT22;7171;50.936;6.764;2023-12-20T08:13:04;7.50;99.90
14182;DHT22;7171;50.936;6.764;2023-12-20T08:15:31;7.50;99.90
14182;DHT22;7171;50.936;6.764;2023-12-20T08:17:58;7.50;99.90
14182;DHT22;7171;50.936;6.764;2023-12-20T08:20:24;7.50;99.90
14182;DHT22;7171;50.936;6.764;2023-12-20T08:22:52;7.50;99.90
14182;DHT22;7171;50.936;6.764;2023-12-20T08:25:19;7.40;99.90
14182;DHT22;7171;50.936;6.764;2023-12-20T08:27:46;7.40;99.90
14182;DHT22;7171;50.936;6.764;2023-12-20T08:30:13;7.40;99.90
14182;DHT22;7171;50.936;6.764;2023-12-20T08:32:40;7.40;99.90
14182;DHT22;7171;50.936;6.764;2023-12-20T08:35:07;7.40;99.90
14182;DHT22;7171;50.936;6.764;2023-12-20T08:37:34;7.30;99.90
14182;DHT22;7171;50.936;6.764;2023-12-20T08:40:03;7.40;99.90
14182;DHT22;7171;50.936;6.764;2023-12-20T08:42:30;7.30;99.90
14182;DHT22;7171;50.936;6.764;2023-12-20T08:44:57;7.30;99.90
14182;DHT22;7171;50.936;6.764;2023-12-20T08:47:24;7.30;99.90
14182;DHT22;7171;50.936;6.764;2023-12-20T08:49:52;7.30;99.90
14182;DHT22;7171;50.936;6.764;2023-12-20T08:52:21;7.30;99.90
14182;DHT22;7171;50.936;6.764;2023-12-20T08:54:48;7.40;99.90
14182;DHT22;7171;50.936;6.764;2023-12-20T08:57:19;7.30;99.90
14182;DHT22;7171;50.936;6.764;2023-12-20T08:59:48;7.30;99.90
14182;DHT22;7171;50.936;6.764;2023-12-20T09:02:14;7.30;99.90
14182;DHT22;7171;50.936;6.764;2023-12-20T09:04:41;7.30;99.90
14182;DHT22;7171;50.936;6.764;2023-12-20T09:07:21;7.40;99.90
14182;DHT22;7171;50.936;6.764;2023-12-20T09:09:47;7.40;99.90
14182;DHT22;7171;50.936;6.764;2023-12-20T09:12:14;7.40;99.90
14182;DHT22;7171;50.936;6.764;2023-12-20T09:14:42;7.40;99.90
14182;DHT22;7171;50.936;6.764;2023-12-20T09:17:09;7.50;99.90
14182;DHT22;7171;50.936;6.764;2023-12-20T09:19:37;7.50;99.90
14182;DHT22;7171;50.936;6.764;2023-12-20T09:22:04;7.50;99.90
14182;DHT22;7171;50.936;6.764;2023-12-20T09:24:31;7.50;99.90
14182;DHT22;7171;50.936;6.764;2023-12-20T09:26:58;7.50;99.90
14182;DHT22;7171;50.936;6.764;2023-12-20T09:29:24;7.50;99.90
14182;DHT22;7171;50.936;6.764;2023-12-20T09:31:52;7.50;99.90
14182;DHT22;7171;50.936;6.764;2023-12-20T09:34:19;7.50;99.90
14182;DHT22;7171;50.936;6.764;2023-12-20T09:36:46;7.60;99.90
14182;DHT22;7171;50.936;6.764;2023-12-20T09:39:14;7.60;99.90
14182;DHT22;7171;50.936;6.764;2023-12-20T09:41:43;7.60;99.90
14182;DHT22;7171;50.936;6.764;2023-12-20T09:44:14;7.60;99.90
14182;DHT22;7171;50.936;6.764;2023-12-20T09:46:44;7.60;99.90
14182;DHT22;7171;50.936;6.764;2023-12-20T09:49:13;7.70;99.90
14182;DHT22;7171;50.936;6.764;2023-12-20T09:51:40;7.70;99.90
14182;DHT22;7171;50.936;6.764;2023-12-20T09:54:08;7.70;99.90
14182;DHT22;7171;50.936;6.764;2023-12-20T09:56:37;7.70;99.90
14182;DHT22;7171;50.936;6.764;2023-12-20T09:59:04;7.70;99.90
14182;DHT22;7171;50.936;6.764;2023-12-20T10:01:31;7.70;99.90
14182;DHT22;7171;50.936;6.764;2023-12-20T10:04:00;7.80;99.90
14182;DHT22;7171;50.936;6.764;2023-12-20T10:06:28;7.80;99.90
14182;DHT22;7171;50.936;6.764;2023-12-20T10:08:55;7.80;99.90
14182;DHT22;7171;50.936;6.764;2023-12-20T10:11:22;7.80;99.90
14182;DHT22;7171;50.936;6.764;2023-12-20T10:13:49;7.80;99.90
14182;DHT22;7171;50.936;6.764;2023-12-20T10:16:16;7.80;99.90
14182;DHT22;7171;50.936;6.764;2023-12-20T10:18:42;7.80;99.90
14182;DHT22;7171;50.936;6.764;2023-12-20T10:21:09;7.80;99.90
14182;DHT22;7171;50.936;6.764;2023-12-20T10:23:38;7.80;99.90
14182;DHT22;7171;50.936;6.764;2023-12-20T10:26:06;7.80;99.90
14182;DHT22;7171;50.936;6.764;2023-12-20T10:28:33;7.80;99.90
14182;DHT22;7171;50.936;6.764;2023-12-20T10:31:00;7.80;99.90
14182;DHT22;7171;50.936;6.764;2023-12-20T10:33:28;7.80;99.90
14182;DHT22;7171;50.936;6.764;2023-12-20T10:35:55;7.80;99.90
14182;DHT22;7171;50.936;6.764;2023-12-20T10:38:22;7.80;99.90
14182;DHT22;7171;50.936;6.764;2023-12-20T10:40:54;7.80;99.90
14182;DHT22;7171;50.936;6.764;2023-12-20T10:43:21;7.80;99.90
14182;DHT22;7171;50.936;6.764;2023-12-20T10:45:49;7.80;99.90
14182;DHT22;7171;50.936;6.764;2023-12-20T10:48:16;7.80;99.90
14182;DHT22;7171;50.936;6.764;2023-12-20T10:50:44;7.80;99.90
14182;DHT22;7171;50.936;6.764;2023-12-20T10:53:12;7.80;99.90
14182;DHT22;7171;50.936;6.764;2023-12-20T10:55:39;7.80;99.90
14182;DHT22;7171;50.936;6.764;2023-12-20T10:58:09;7.80;99.90
14182;DHT22;7171;50.936;6.764;2023-12-20T11:00:39;7.80;99.90
14182;DHT22;7171;50.936;6.764;2023-12-20T11:03:08;7.80;99.90
14182;DHT22;7171;50.936;6.764;2023-12-20T11:05:38;7.80;99.90
14182;DHT22;7171;50.936;6.764;2023-12-20T11:08:10;7.80;99.90
14182;DHT22;7171;50.936;6.764;2023-12-20T11:10:42;7.80;99.90
14182;DHT22;7171;50.936;6.764;2023-12-20T11:13:22;7.80;99.90
14182;DHT22;7171;50.936;6.764;2023-12-20T11:15:50;7.80;99.90
14182;DHT22;7171;50.936;6.764;2023-12-20T11:18:17;7.80;99.90
14182;DHT22;7171;50.936;6.764;2023-12-20T11:20:43;7.80;99.90
14182;DHT22;7171;50.936;6.764;2023-12-20T11:23:10;7.90;99.90
14182;DHT22;7171;50.936;6.764;2023-12-20T11:25:47;7.90;99.90
14182;DHT22;7171;50.936;6.764;2023-12-20T11:28:20;7.90;99.90
14182;DHT22;7171;50.936;6.764;2023-12-20T11:30:49;8.00;99.90
14182;DHT22;7171;50.936;6.764;2023-12-20T11:33:21;8.00;99.90
14182;DHT22;7171;50.936;6.764;2023-12-20T11:35:48;8.00;99.90
14182;DHT22;7171;50.936;6.764;2023-12-20T11:38:15;8.00;99.90
14182;DHT22;7171;50.936;6.764;2023-12-20T11:40:42;8.00;99.90
14182;DHT22;7171;50.936;6.764;2023-12-20T11:43:10;8.00;99.90
14182;DHT22;7171;50.936;6.764;2023-12-20T11:45:49;8.00;99.90
14182;DHT22;7171;50.936;6.764;2023-12-20T11:48:16;8.10;99.90
14182;DHT22;7171;50.936;6.764;2023-12-20T11:50:43;8.10;99.90
14182;DHT22;7171;50.936;6.764;2023-12-20T11:53:10;8.10;99.90
14182;DHT22;7171;50.936;6.764;2023-12-20T11:55:37;8.10;99.90
14182;DHT22;7171;50.936;6.764;2023-12-20T11:58:04;8.10;99.90
14182;DHT22;7171;50.936;6.764;2023-12-20T12:00:31;8.10;99.90
14182;DHT22;7171;50.936;6.764;2023-12-20T12:02:59;8.10;99.90
14182;DHT22;7171;50.936;6.764;2023-12-20T12:05:28;8.10;99.90
14182;DHT22;7171;50.936;6.764;2023-12-20T12:07:57;8.10;99.90
14182;DHT22;7171;50.936;6.764;2023-12-20T12:10:23;8.10;99.90
14182;DHT22;7171;50.936;6.764;2023-12-20T12:12:50;8.10;99.90
14182;DHT22;7171;50.936;6.764;2023-12-20T12:15:17;8.10;99.90
14182;DHT22;7171;50.936;6.764;2023-12-20T12:17:44;8.10;99.90
14182;DHT22;7171;50.936;6.764;2023-12-20T12:20:12;8.10;99.90
14182;DHT22;7171;50.936;6.764;2023-12-20T12:22:39;8.10;99.90
14182;DHT22;7171;50.936;6.764;2023-12-20T12:25:13;8.10;99.90
14182;DHT22;7171;50.936;6.764;2023-12-20T12:27:40;8.10;99.90
14182;DHT22;7171;50.936;6.764;2023-12-20T12:30:09;8.10;99.90
14182;DHT22;7171;50.936;6.764;2023-12-20T12:32:38;8.10;99.90
14182;DHT22;7171;50.936;6.764;2023-12-20T12:35:05;8.10;99.90
14182;DHT22;7171;50.936;6.764;2023-12-20T12:37:37;8.10;99.90
14182;DHT22;7171;50.936;6.764;2023-12-20T12:40:05;8.10;99.90
14182;DHT22;7171;50.936;6.764;2023-12-20T12:42:32;8.10;99.90
14182;DHT22;7171;50.936;6.764;2023-12-20T12:44:59;8.10;99.90
14182;DHT22;7171;50.936;6.764;2023-12-20T12:47:26;8.20;99.90
14182;DHT22;7171;50.936;6.764;2023-12-20T12:49:53;8.20;99.90
14182;DHT22;7171;50.936;6.764;2023-12-20T12:52:19;8.20;99.90
14182;DHT22;7171;50.936;6.764;2023-12-20T12:54:48;8.20;99.90
14182;DHT22;7171;50.936;6.764;2023-12-20T12:57:15;8.30;99.90
14182;DHT22;7171;50.936;6.764;2023-12-20T12:59:42;8.30;99.90
14182;DHT22;7171;50.936;6.764;2023-12-20T13:02:11;8.30;99.90
14182;DHT22;7171;50.936;6.764;2023-12-20T13:04:38;8.30;99.90
14182;DHT22;7171;50.936;6.764;2023-12-20T13:07:05;8.30;99.90
14182;DHT22;7171;50.936;6.764;2023-12-20T13:09:32;8.30;99.90
14182;DHT22;7171;50.936;6.764;2023-12-20T13:12:02;8.30;99.90
14182;DHT22;7171;50.936;6.764;2023-12-20T13:14:30;8.30;99.90
14182;DHT22;7171;50.936;6.764;2023-12-20T13:16:57;8.20;99.90
14182;DHT22;7171;50.936;6.764;2023-12-20T13:19:24;8.20;99.90
14182;DHT22;7171;50.936;6.764;2023-12-20T13:21:51;8.20;99.90
14182;DHT22;7171;50.936;6.764;2023-12-20T13:24:18;8.20;99.90
14182;DHT22;7171;50.936;6.764;2023-12-20T13:26:44;8.20;99.90
14182;DHT22;7171;50.936;6.764;2023-12-20T13:29:12;8.20;99.90
14182;DHT22;7171;50.936;6.764;2023-12-20T13:31:39;8.20;99.90
14182;DHT22;7171;50.936;6.764;2023-12-20T13:34:06;8.20;99.90
14182;DHT22;7171;50.936;6.764;2023-12-20T13:36:33;8.20;99.90
14182;DHT22;7171;50.936;6.764;2023-12-20T13:39:01;8.20;99.90
14182;DHT22;7171;50.936;6.764;2023-12-20T13:41:29;8.30;99.90
14182;DHT22;7171;50.936;6.764;2023-12-20T13:43:56;8.30;99.90
14182;DHT22;7171;50.936;6.764;2023-12-20T13:46:24;8.30;99.90
14182;DHT22;7171;50.936;6.764;2023-12-20T13:48:51;8.30;99.90
14182;DHT22;7171;50.936;6.764;2023-12-20T13:51:18;8.30;99.90
14182;DHT22;7171;50.936;6.764;2023-12-20T13:53:46;8.30;99.90
14182;DHT22;7171;50.936;6.764;2023-12-20T13:56:13;8.30;99.90
14182;DHT22;7171;50.936;6.764;2023-12-20T13:58:40;8.30;99.90
14182;DHT22;7171;50.936;6.764;2023-12-20T14:01:07;8.30;99.90
14182;DHT22;7171;50.936;6.764;2023-12-20T14:03:35;8.30;99.90
14182;DHT22;7171;50.936;6.764;2023-12-20T14:06:02;8.30;99.90
14182;DHT22;7171;50.936;6.764;2023-12-20T14:08:29;8.30;99.90
14182;DHT22;7171;50.936;6.764;2023-12-20T14:10:55;8.30;99.90
14182;DHT22;7171;50.936;6.764;2023-12-20T14:13:22;8.30;99.90
14182;DHT22;7171;50.936;6.764;2023-12-20T14:15:49;8.30;99.90
14182;DHT22;7171;50.936;6.764;2023-12-20T14:18:16;8.30;99.90
14182;DHT22;7171;50.936;6.764;2023-12-20T14:20:45;8.30;99.90
14182;DHT22;7171;50.936;6.764;2023-12-20T14:23:12;8.30;99.90
14182;DHT22;7171;50.936;6.764;2023-12-20T14:25:40;8.30;99.90
14182;DHT22;7171;50.936;6.764;2023-12-20T14:28:07;8.40;99.90
14182;DHT22;7171;50.936;6.764;2023-12-20T14:30:35;8.40;99.90
14182;DHT22;7171;50.936;6.764;2023-12-20T14:33:04;8.40;99.90
14182;DHT22;7171;50.936;6.764;2023-12-20T14:35:31;8.40;99.90
14182;DHT22;7171;50.936;6.764;2023-12-20T14:37:59;8.50;99.90
14182;DHT22;7171;50.936;6.764;2023-12-20T14:40:26;8.50;99.90
14182;DHT22;7171;50.936;6.764;2023-12-20T14:43:12;8.50;99.90
14182;DHT22;7171;50.936;6.764;2023-12-20T14:45:38;8.50;99.90
14182;DHT22;7171;50.936;6.764;2023-12-20T14:48:06;8.60;99.90
14182;DHT22;7171;50.936;6.764;2023-12-20T14:50:33;8.60;99.90
14182;DHT22;7171;50.936;6.764;2023-12-20T14:53:02;8.60;99.90
14182;DHT22;7171;50.936;6.764;2023-12-20T14:55:29;8.60;99.90
14182;DHT22;7171;50.936;6.764;2023-12-20T14:57:56;8.60;99.90
14182;DHT22;7171;50.936;6.764;2023-12-20T15:00:23;8.60;99.90
14182;DHT22;7171;50.936;6.764;2023-12-20T15:02:49;8.70;99.90
14182;DHT22;7171;50.936;6.764;2023-12-20T15:05:16;8.70;99.90
14182;DHT22;7171;50.936;6.764;2023-12-20T15:07:43;8.70;99.90
14182;DHT22;7171;50.936;6.764;2023-12-20T15:10:12;8.70;99.90
14182;DHT22;7171;50.936;6.764;2023-12-20T15:12:38;8.70;99.90
14182;DHT22;7171;50.936;6.764;2023-12-20T15:15:06;8.70;99.90
14182;DHT22;7171;50.936;6.764;2023-12-20T15:17:35;8.70;99.90
14182;DHT22;7171;50.936;6.764;2023-12-20T15:20:02;8.70;99.90
14182;DHT22;7171;50.936;6.764;2023-12-20T15:22:29;8.70;99.90
14182;DHT22;7171;50.936;6.764;2023-12-20T15:24:59;8.70;99.90
14182;DHT22;7171;50.936;6.764;2023-12-20T15:27:28;8.70;99.90
14182;DHT22;7171;50.936;6.764;2023-12-20T15:29:54;8.70;99.90
14182;DHT22;7171;50.936;6.764;2023-12-20T15:32:21;8.60;99.90
14182;DHT22;7171;50.936;6.764;2023-12-20T15:34:48;8.60;99.90
14182;DHT22;7171;50.936;6.764;2023-12-20T15:37:15;8.60;99.90
14182;DHT22;7171;50.936;6.764;2023-12-20T15:39:42;8.60;99.90
14182;DHT22;7171;50.936;6.764;2023-12-20T15:42:08;8.60;99.90
14182;DHT22;7171;50.936;6.764;2023-12-20T15:44:37;8.60;99.90
14182;DHT22;7171;50.936;6.764;2023-12-20T15:47:03;8.60;99.90
14182;DHT22;7171;50.936;6.764;2023-12-20T15:49:30;8.70;99.90
14182;DHT22;7171;50.936;6.764;2023-12-20T15:51:57;8.60;99.90
14182;DHT22;7171;50.936;6.764;2023-12-20T15:54:23;8.60;99.90
14182;DHT22;7171;50.936;6.764;2023-12-20T15:56:50;8.60;99.90
14182;DHT22;7171;50.936;6.764;2023-12-20T15:59:17;8.60;99.90
14182;DHT22;7171;50.936;6.764;2023-12-20T16:01:45;8.60;99.90
14182;DHT22;7171;50.936;6.764;2023-12-20T16:04:12;8.60;99.90